sensor_id;sensor_type;location;lat;lon;timestamp;P1;durP1;ratioP1;P2;durP2;ratioP2
79025;SDS011;74892;44.760;37.726;2024-02-23T05:39:29;45.00;;;15.90;;
79025;SDS011;74892;44.760;37.726;2024-02-23T05:42:25;36.00;;;15.43;;
79025;SDS011;74892;44.760;37.726;2024-02-23T05:43:27;38.08;;;16.65;;
79025;SDS011;74892;44.760;37.726;2024-02-23T05:44:29;31.05;;;14.18;;
79025;SDS011;74892;44.760;37.726;2024-02-23T05:45:30;37.25;;;15.27;;
79025;SDS011;74892;44.760;37.726;2024-02-23T05:46:32;28.23;;;15.60;;
79025;SDS011;74892;44.760;37.726;2024-02-23T05:47:36;32.85;;;14.88;;
79025;SDS011;74892;44.760;37.726;2024-02-23T05:48:38;36.67;;;15.38;;
79025;SDS011;74892;44.760;37.726;2024-02-23T05:49:39;41.13;;;17.98;;
79025;SDS011;74892;44.760;37.726;2024-02-23T05:50:41;36.67;;;17.45;;
79025;SDS011;74892;44.760;37.726;2024-02-23T05:51:43;44.85;;;17.55;;
79025;SDS011;74892;44.760;37.726;2024-02-23T05:52:44;35.03;;;18.38;;
79025;SDS011;74892;44.760;37.726;2024-02-23T05:53:46;39.50;;;17.63;;
79025;SDS011;74892;44.760;37.726;2024-02-23T05:54:48;35.25;;;17.00;;
79025;SDS011;74892;44.760;37.726;2024-02-23T05:55:49;48.05;;;18.70;;
79025;SDS011;74892;44.760;37.726;2024-02-23T05:56:51;46.55;;;18.67;;
79025;SDS011;74892;44.760;37.726;2024-02-23T05:57:53;39.67;;;17.58;;
79025;SDS011;74892;44.760;37.726;2024-02-23T05:58:54;36.15;;;16.70;;
79025;SDS011;74892;44.760;37.726;2024-02-23T05:59:56;37.97;;;16.92;;
79025;SDS011;74892;44.760;37.726;2024-02-23T06:00:58;44.30;;;17.88;;
79025;SDS011;74892;44.760;37.726;2024-02-23T06:02:00;34.08;;;15.65;;
79025;SDS011;74892;44.760;37.726;2024-02-23T06:03:01;40.13;;;15.00;;
79025;SDS011;74892;44.760;37.726;2024-02-23T06:04:03;39.22;;;16.98;;
79025;SDS011;74892;44.760;37.726;2024-02-23T06:05:05;41.92;;;16.42;;
79025;SDS011;74892;44.760;37.726;2024-02-23T06:54:58;14.63;;;8.80;;
79025;SDS011;74892;44.760;37.726;2024-02-23T06:56:00;14.35;;;9.10;;
79025;SDS011;74892;44.760;37.726;2024-02-23T06:57:04;12.90;;;7.68;;
79025;SDS011;74892;44.760;37.726;2024-02-23T06:58:08;15.00;;;9.00;;
79025;SDS011;74892;44.760;37.726;2024-02-23T06:59:11;15.50;;;8.77;;
79025;SDS011;74892;44.760;37.726;2024-02-23T07:00:13;13.00;;;8.20;;
79025;SDS011;74892;44.760;37.726;2024-02-23T07:01:20;16.05;;;9.32;;
79025;SDS011;74892;44.760;37.726;2024-02-23T07:02:24;15.40;;;9.18;;
79025;SDS011;74892;44.760;37.726;2024-02-23T07:03:29;12.15;;;8.70;;
79025;SDS011;74892;44.760;37.726;2024-02-23T07:04:37;11.63;;;7.57;;
79025;SDS011;74892;44.760;37.726;2024-02-23T07:05:50;10.43;;;6.45;;
79025;SDS011;74892;44.760;37.726;2024-02-23T07:07:00;8.63;;;5.32;;
79025;SDS011;74892;44.760;37.726;2024-02-23T07:08:11;10.25;;;6.10;;
79025;SDS011;74892;44.760;37.726;2024-02-23T07:09:13;9.55;;;5.32;;
79025;SDS011;74892;44.760;37.726;2024-02-23T07:10:15;7.63;;;5.15;;
79025;SDS011;74892;44.760;37.726;2024-02-23T07:11:19;7.45;;;5.75;;
79025;SDS011;74892;44.760;37.726;2024-02-23T07:12:23;8.95;;;6.10;;
79025;SDS011;74892;44.760;37.726;2024-02-23T07:13:25;5.95;;;3.80;;
79025;SDS011;74892;44.760;37.726;2024-02-23T07:14:26;5.20;;;3.45;;
79025;SDS011;74892;44.760;37.726;2024-02-23T07:15:28;4.18;;;2.92;;
79025;SDS011;74892;44.760;37.726;2024-02-23T07:16:40;5.20;;;3.25;;
79025;SDS011;74892;44.760;37.726;2024-02-23T07:17:50;5.88;;;3.85;;
79025;SDS011;74892;44.760;37.726;2024-02-23T07:19:23;5.38;;;3.58;;
79025;SDS011;74892;44.760;37.726;2024-02-23T07:20:33;6.10;;;4.00;;
79025;SDS011;74892;44.760;37.726;2024-02-23T07:21:36;7.50;;;5.10;;
79025;SDS011;74892;44.760;37.726;2024-02-23T07:22:38;8.70;;;4.60;;
79025;SDS011;74892;44.760;37.726;2024-02-23T07:23:40;5.63;;;3.38;;
79025;SDS011;74892;44.760;37.726;2024-02-23T07:24:47;5.82;;;3.60;;
79025;SDS011;74892;44.760;37.726;2024-02-23T07:25:53;7.97;;;4.40;;
79025;SDS011;74892;44.760;37.726;2024-02-23T07:26:56;5.97;;;3.80;;
79025;SDS011;74892;44.760;37.726;2024-02-23T07:27:57;4.97;;;3.03;;
79025;SDS011;74892;44.760;37.726;2024-02-23T07:28:59;6.00;;;3.60;;
79025;SDS011;74892;44.760;37.726;2024-02-23T07:30:01;5.28;;;3.50;;
79025;SDS011;74892;44.760;37.726;2024-02-23T07:31:04;10.05;;;4.05;;
79025;SDS011;74892;44.760;37.726;2024-02-23T07:32:11;8.07;;;4.13;;
79025;SDS011;74892;44.760;37.726;2024-02-23T07:33:16;8.13;;;3.90;;
79025;SDS011;74892;44.760;37.726;2024-02-23T07:34:21;6.35;;;3.78;;
79025;SDS011;74892;44.760;37.726;2024-02-23T07:35:22;6.30;;;3.42;;
79025;SDS011;74892;44.760;37.726;2024-02-23T07:36:24;5.07;;;3.35;;
79025;SDS011;74892;44.760;37.726;2024-02-23T07:37:26;5.50;;;3.38;;
79025;SDS011;74892;44.760;37.726;2024-02-23T07:38:28;5.90;;;3.25;;
79025;SDS011;74892;44.760;37.726;2024-02-23T07:39:33;5.90;;;2.75;;
79025;SDS011;74892;44.760;37.726;2024-02-23T07:40:35;5.68;;;2.90;;
79025;SDS011;74892;44.760;37.726;2024-02-23T07:41:37;6.45;;;2.83;;
79025;SDS011;74892;44.760;37.726;2024-02-23T07:42:39;4.90;;;2.95;;
79025;SDS011;74892;44.760;37.726;2024-02-23T07:43:41;4.60;;;3.08;;
79025;SDS011;74892;44.760;37.726;2024-02-23T07:44:43;6.15;;;3.10;;
79025;SDS011;74892;44.760;37.726;2024-02-23T07:45:45;5.55;;;3.10;;
79025;SDS011;74892;44.760;37.726;2024-02-23T07:46:47;5.57;;;3.03;;
79025;SDS011;74892;44.760;37.726;2024-02-23T07:47:49;4.90;;;2.92;;
79025;SDS011;74892;44.760;37.726;2024-02-23T07:48:53;6.13;;;2.70;;
79025;SDS011;74892;44.760;37.726;2024-02-23T07:49:55;6.72;;;3.15;;
79025;SDS011;74892;44.760;37.726;2024-02-23T07:50:57;5.18;;;3.40;;
79025;SDS011;74892;44.760;37.726;2024-02-23T07:52:01;5.50;;;3.03;;
79025;SDS011;74892;44.760;37.726;2024-02-23T07:53:13;5.95;;;2.97;;
79025;SDS011;74892;44.760;37.726;2024-02-23T07:54:15;4.82;;;2.70;;
79025;SDS011;74892;44.760;37.726;2024-02-23T07:55:19;6.03;;;3.47;;
79025;SDS011;74892;44.760;37.726;2024-02-23T07:56:21;4.95;;;2.95;;
79025;SDS011;74892;44.760;37.726;2024-02-23T07:57:23;4.80;;;2.75;;
79025;SDS011;74892;44.760;37.726;2024-02-23T07:58:25;6.75;;;3.25;;
79025;SDS011;74892;44.760;37.726;2024-02-23T07:59:30;7.10;;;3.38;;
79025;SDS011;74892;44.760;37.726;2024-02-23T08:00:32;5.93;;;3.10;;
79025;SDS011;74892;44.760;37.726;2024-02-23T08:01:38;8.13;;;3.35;;
79025;SDS011;74892;44.760;37.726;2024-02-23T08:02:43;5.80;;;3.20;;
79025;SDS011;74892;44.760;37.726;2024-02-23T08:03:45;7.47;;;3.88;;
79025;SDS011;74892;44.760;37.726;2024-02-23T08:04:46;5.45;;;3.38;;
79025;SDS011;74892;44.760;37.726;2024-02-23T08:05:49;5.90;;;3.38;;
79025;SDS011;74892;44.760;37.726;2024-02-23T08:06:51;7.22;;;3.55;;
79025;SDS011;74892;44.760;37.726;2024-02-23T08:07:55;6.80;;;2.60;;
79025;SDS011;74892;44.760;37.726;2024-02-23T08:08:57;5.78;;;3.30;;
79025;SDS011;74892;44.760;37.726;2024-02-23T08:09:59;5.60;;;3.10;;
79025;SDS011;74892;44.760;37.726;2024-02-23T08:11:01;4.50;;;2.85;;
79025;SDS011;74892;44.760;37.726;2024-02-23T08:12:03;6.18;;;3.38;;
79025;SDS011;74892;44.760;37.726;2024-02-23T08:13:12;5.30;;;2.88;;
79025;SDS011;74892;44.760;37.726;2024-02-23T08:14:14;5.35;;;3.40;;
79025;SDS011;74892;44.760;37.726;2024-02-23T08:15:16;8.52;;;3.60;;
79025;SDS011;74892;44.760;37.726;2024-02-23T08:16:21;7.22;;;4.35;;
79025;SDS011;74892;44.760;37.726;2024-02-23T08:17:23;6.50;;;3.63;;
79025;SDS011;74892;44.760;37.726;2024-02-23T08:18:25;6.03;;;3.28;;
79025;SDS011;74892;44.760;37.726;2024-02-23T08:19:27;5.32;;;3.08;;
79025;SDS011;74892;44.760;37.726;2024-02-23T08:20:34;6.13;;;2.90;;
79025;SDS011;74892;44.760;37.726;2024-02-23T08:21:39;5.50;;;3.38;;
79025;SDS011;74892;44.760;37.726;2024-02-23T08:22:44;6.25;;;3.35;;
79025;SDS011;74892;44.760;37.726;2024-02-23T08:23:46;5.88;;;3.42;;
79025;SDS011;74892;44.760;37.726;2024-02-23T08:24:48;6.32;;;3.58;;
79025;SDS011;74892;44.760;37.726;2024-02-23T08:25:52;5.80;;;3.97;;
79025;SDS011;74892;44.760;37.726;2024-02-23T08:26:54;6.20;;;3.20;;
79025;SDS011;74892;44.760;37.726;2024-02-23T08:27:56;5.57;;;3.17;;
79025;SDS011;74892;44.760;37.726;2024-02-23T08:30:01;5.30;;;2.78;;
79025;SDS011;74892;44.760;37.726;2024-02-23T08:31:04;6.15;;;3.15;;
79025;SDS011;74892;44.760;37.726;2024-02-23T08:32:06;4.38;;;2.38;;
79025;SDS011;74892;44.760;37.726;2024-02-23T08:33:07;8.07;;;3.25;;
79025;SDS011;74892;44.760;37.726;2024-02-23T08:34:11;5.95;;;3.40;;
79025;SDS011;74892;44.760;37.726;2024-02-23T08:35:13;7.40;;;3.75;;
79025;SDS011;74892;44.760;37.726;2024-02-23T08:36:17;7.53;;;3.97;;
79025;SDS011;74892;44.760;37.726;2024-02-23T08:37:19;5.57;;;2.80;;
79025;SDS011;74892;44.760;37.726;2024-02-23T08:38:20;5.80;;;3.13;;
79025;SDS011;74892;44.760;37.726;2024-02-23T08:39:22;7.57;;;3.45;;
79025;SDS011;74892;44.760;37.726;2024-02-23T08:40:30;6.25;;;2.85;;
79025;SDS011;74892;44.760;37.726;2024-02-23T08:41:34;7.15;;;3.15;;
79025;SDS011;74892;44.760;37.726;2024-02-23T08:42:38;5.57;;;3.10;;
79025;SDS011;74892;44.760;37.726;2024-02-23T08:43:40;6.00;;;3.13;;
79025;SDS011;74892;44.760;37.726;2024-02-23T08:44:42;6.45;;;3.20;;
79025;SDS011;74892;44.760;37.726;2024-02-23T08:45:44;5.63;;;2.88;;
79025;SDS011;74892;44.760;37.726;2024-02-23T08:46:46;4.68;;;2.92;;
79025;SDS011;74892;44.760;37.726;2024-02-23T08:47:49;6.53;;;3.40;;
79025;SDS011;74892;44.760;37.726;2024-02-23T08:48:51;5.22;;;2.83;;
79025;SDS011;74892;44.760;37.726;2024-02-23T08:49:55;6.65;;;3.13;;
79025;SDS011;74892;44.760;37.726;2024-02-23T08:50:57;8.43;;;2.88;;
79025;SDS011;74892;44.760;37.726;2024-02-23T08:52:02;6.95;;;2.70;;
79025;SDS011;74892;44.760;37.726;2024-02-23T08:53:07;6.55;;;2.55;;
79025;SDS011;74892;44.760;37.726;2024-02-23T08:54:09;3.85;;;2.08;;
79025;SDS011;74892;44.760;37.726;2024-02-23T08:55:11;3.53;;;2.33;;
79025;SDS011;74892;44.760;37.726;2024-02-23T08:56:12;4.40;;;2.83;;
79025;SDS011;74892;44.760;37.726;2024-02-23T08:57:17;3.65;;;2.13;;
79025;SDS011;74892;44.760;37.726;2024-02-23T08:59:22;6.60;;;2.55;;
79025;SDS011;74892;44.760;37.726;2024-02-23T09:00:24;5.88;;;2.88;;
79025;SDS011;74892;44.760;37.726;2024-02-23T09:01:26;5.75;;;2.30;;
79025;SDS011;74892;44.760;37.726;2024-02-23T09:02:27;4.40;;;1.90;;
79025;SDS011;74892;44.760;37.726;2024-02-23T09:03:29;4.20;;;2.10;;
79025;SDS011;74892;44.760;37.726;2024-02-23T09:04:32;4.50;;;2.58;;
79025;SDS011;74892;44.760;37.726;2024-02-23T09:05:34;4.38;;;2.63;;
79025;SDS011;74892;44.760;37.726;2024-02-23T09:06:38;5.07;;;2.58;;
79025;SDS011;74892;44.760;37.726;2024-02-23T09:07:40;6.28;;;3.42;;
79025;SDS011;74892;44.760;37.726;2024-02-23T09:08:42;6.45;;;2.83;;
79025;SDS011;74892;44.760;37.726;2024-02-23T09:09:44;4.35;;;2.35;;
79025;SDS011;74892;44.760;37.726;2024-02-23T09:10:46;4.53;;;2.20;;
79025;SDS011;74892;44.760;37.726;2024-02-23T09:11:47;4.65;;;2.53;;
79025;SDS011;74892;44.760;37.726;2024-02-23T09:12:53;5.05;;;2.67;;
79025;SDS011;74892;44.760;37.726;2024-02-23T09:13:55;5.80;;;2.92;;
79025;SDS011;74892;44.760;37.726;2024-02-23T09:14:57;5.28;;;2.67;;
79025;SDS011;74892;44.760;37.726;2024-02-23T09:15:58;4.82;;;2.33;;
79025;SDS011;74892;44.760;37.726;2024-02-23T09:17:00;6.15;;;2.97;;
79025;SDS011;74892;44.760;37.726;2024-02-23T09:18:02;5.18;;;2.72;;
79025;SDS011;74892;44.760;37.726;2024-02-23T09:19:04;5.03;;;2.42;;
79025;SDS011;74892;44.760;37.726;2024-02-23T09:20:06;4.75;;;2.17;;
79025;SDS011;74892;44.760;37.726;2024-02-23T09:21:11;4.13;;;2.45;;
79025;SDS011;74892;44.760;37.726;2024-02-23T09:22:13;4.90;;;3.20;;
79025;SDS011;74892;44.760;37.726;2024-02-23T09:23:14;5.30;;;3.00;;
79025;SDS011;74892;44.760;37.726;2024-02-23T09:24:16;11.35;;;4.47;;
79025;SDS011;74892;44.760;37.726;2024-02-23T09:25:18;6.07;;;3.47;;
79025;SDS011;74892;44.760;37.726;2024-02-23T09:26:19;6.93;;;3.13;;
79025;SDS011;74892;44.760;37.726;2024-02-23T09:27:21;5.57;;;2.90;;
79025;SDS011;74892;44.760;37.726;2024-02-23T09:28:23;8.95;;;3.78;;
79025;SDS011;74892;44.760;37.726;2024-02-23T09:29:24;5.72;;;3.10;;
79025;SDS011;74892;44.760;37.726;2024-02-23T09:30:26;7.55;;;3.17;;
79025;SDS011;74892;44.760;37.726;2024-02-23T09:31:28;5.22;;;2.92;;
79025;SDS011;74892;44.760;37.726;2024-02-23T09:32:34;5.35;;;3.10;;
79025;SDS011;74892;44.760;37.726;2024-02-23T09:33:37;4.30;;;2.40;;
79025;SDS011;74892;44.760;37.726;2024-02-23T09:34:38;3.55;;;1.75;;
79025;SDS011;74892;44.760;37.726;2024-02-23T09:35:42;5.05;;;2.97;;
79025;SDS011;74892;44.760;37.726;2024-02-23T09:36:45;4.00;;;2.53;;
79025;SDS011;74892;44.760;37.726;2024-02-23T09:37:49;4.90;;;2.95;;
79025;SDS011;74892;44.760;37.726;2024-02-23T09:38:51;4.82;;;3.25;;
79025;SDS011;74892;44.760;37.726;2024-02-23T09:39:53;5.63;;;3.05;;
79025;SDS011;74892;44.760;37.726;2024-02-23T09:40:54;7.20;;;3.78;;
79025;SDS011;74892;44.760;37.726;2024-02-23T09:42:03;6.82;;;3.47;;
79025;SDS011;74892;44.760;37.726;2024-02-23T09:43:14;7.32;;;4.68;;
79025;SDS011;74892;44.760;37.726;2024-02-23T09:44:17;5.13;;;3.05;;
79025;SDS011;74892;44.760;37.726;2024-02-23T09:45:21;7.10;;;4.22;;
79025;SDS011;74892;44.760;37.726;2024-02-23T09:46:25;6.82;;;3.85;;
79025;SDS011;74892;44.760;37.726;2024-02-23T09:47:27;5.95;;;3.05;;
79025;SDS011;74892;44.760;37.726;2024-02-23T09:48:29;5.88;;;2.88;;
79025;SDS011;74892;44.760;37.726;2024-02-23T09:49:37;4.57;;;2.40;;
79025;SDS011;74892;44.760;37.726;2024-02-23T09:50:42;5.70;;;2.63;;
79025;SDS011;74892;44.760;37.726;2024-02-23T09:51:47;7.38;;;3.50;;
79025;SDS011;74892;44.760;37.726;2024-02-23T09:52:50;6.35;;;3.08;;
79025;SDS011;74892;44.760;37.726;2024-02-23T09:53:52;6.60;;;3.13;;
79025;SDS011;74892;44.760;37.726;2024-02-23T09:54:53;5.43;;;2.97;;
79025;SDS011;74892;44.760;37.726;2024-02-23T09:55:56;6.22;;;3.50;;
79025;SDS011;74892;44.760;37.726;2024-02-23T11:43:14;5.40;;;3.47;;
79025;SDS011;74892;44.760;37.726;2024-02-23T11:44:16;4.88;;;2.60;;
79025;SDS011;74892;44.760;37.726;2024-02-23T11:45:21;7.20;;;2.95;;
79025;SDS011;74892;44.760;37.726;2024-02-23T11:46:23;5.40;;;3.03;;
79025;SDS011;74892;44.760;37.726;2024-02-23T11:47:25;5.97;;;2.90;;
79025;SDS011;74892;44.760;37.726;2024-02-23T11:52:17;3.80;;;1.92;;
79025;SDS011;74892;44.760;37.726;2024-02-23T11:53:19;4.72;;;2.53;;
79025;SDS011;74892;44.760;37.726;2024-02-23T11:54:22;5.55;;;2.67;;
79025;SDS011;74892;44.760;37.726;2024-02-23T11:55:24;2.85;;;1.77;;
79025;SDS011;74892;44.760;37.726;2024-02-23T11:56:25;3.90;;;1.90;;
79025;SDS011;74892;44.760;37.726;2024-02-23T11:57:27;6.03;;;2.80;;
79025;SDS011;74892;44.760;37.726;2024-02-23T11:58:29;5.47;;;2.28;;
79025;SDS011;74892;44.760;37.726;2024-02-23T11:59:30;3.55;;;1.80;;
79025;SDS011;74892;44.760;37.726;2024-02-23T12:00:33;4.05;;;2.30;;
79025;SDS011;74892;44.760;37.726;2024-02-23T12:01:36;5.65;;;1.98;;
79025;SDS011;74892;44.760;37.726;2024-02-23T12:02:38;9.13;;;2.10;;
79025;SDS011;74892;44.760;37.726;2024-02-23T12:03:39;4.53;;;2.15;;
79025;SDS011;74892;44.760;37.726;2024-02-23T12:04:41;5.07;;;2.20;;
79025;SDS011;74892;44.760;37.726;2024-02-23T12:05:43;3.40;;;1.60;;
79025;SDS011;74892;44.760;37.726;2024-02-23T12:06:45;4.22;;;2.17;;
79025;SDS011;74892;44.760;37.726;2024-02-23T12:07:46;3.75;;;1.85;;
79025;SDS011;74892;44.760;37.726;2024-02-23T12:08:48;3.80;;;2.30;;
79025;SDS011;74892;44.760;37.726;2024-02-23T12:09:50;6.57;;;2.90;;
79025;SDS011;74892;44.760;37.726;2024-02-23T12:10:54;5.43;;;2.85;;
79025;SDS011;74892;44.760;37.726;2024-02-23T12:11:57;4.57;;;2.65;;
79025;SDS011;74892;44.760;37.726;2024-02-23T12:13:02;4.13;;;2.33;;
79025;SDS011;74892;44.760;37.726;2024-02-23T12:14:04;7.38;;;3.78;;
79025;SDS011;74892;44.760;37.726;2024-02-23T12:15:09;6.65;;;3.17;;
79025;SDS011;74892;44.760;37.726;2024-02-23T12:16:11;5.25;;;2.53;;
79025;SDS011;74892;44.760;37.726;2024-02-23T12:17:13;3.55;;;1.92;;
79025;SDS011;74892;44.760;37.726;2024-02-23T12:18:15;5.63;;;2.33;;
79025;SDS011;74892;44.760;37.726;2024-02-23T12:19:17;3.97;;;2.17;;
79025;SDS011;74892;44.760;37.726;2024-02-23T12:20:22;4.53;;;2.42;;
79025;SDS011;74892;44.760;37.726;2024-02-23T12:21:24;5.03;;;2.58;;
79025;SDS011;74892;44.760;37.726;2024-02-23T12:22:26;4.95;;;2.65;;
79025;SDS011;74892;44.760;37.726;2024-02-23T12:23:49;5.05;;;2.70;;
79025;SDS011;74892;44.760;37.726;2024-02-23T12:24:50;4.40;;;2.20;;
79025;SDS011;74892;44.760;37.726;2024-02-23T12:25:58;4.10;;;2.03;;
79025;SDS011;74892;44.760;37.726;2024-02-23T12:27:01;4.03;;;2.38;;
79025;SDS011;74892;44.760;37.726;2024-02-23T12:28:03;3.63;;;2.00;;
79025;SDS011;74892;44.760;37.726;2024-02-23T12:29:05;3.80;;;2.45;;
79025;SDS011;74892;44.760;37.726;2024-02-23T12:30:12;3.90;;;2.22;;
79025;SDS011;74892;44.760;37.726;2024-02-23T12:31:15;4.63;;;2.10;;
79025;SDS011;74892;44.760;37.726;2024-02-23T12:32:24;5.95;;;2.03;;
79025;SDS011;74892;44.760;37.726;2024-02-23T12:33:28;4.35;;;2.47;;
79025;SDS011;74892;44.760;37.726;2024-02-23T12:34:32;9.68;;;2.92;;
79025;SDS011;74892;44.760;37.726;2024-02-23T12:35:34;4.47;;;2.63;;
79025;SDS011;74892;44.760;37.726;2024-02-23T12:36:36;5.32;;;2.40;;
79025;SDS011;74892;44.760;37.726;2024-02-23T12:37:40;5.45;;;2.13;;
79025;SDS011;74892;44.760;37.726;2024-02-23T12:38:44;6.85;;;2.33;;
79025;SDS011;74892;44.760;37.726;2024-02-23T12:39:46;6.10;;;2.60;;
79025;SDS011;74892;44.760;37.726;2024-02-23T12:40:48;8.35;;;2.30;;
79025;SDS011;74892;44.760;37.726;2024-02-23T12:41:49;5.03;;;2.38;;
79025;SDS011;74892;44.760;37.726;2024-02-23T12:42:54;4.78;;;2.75;;
79025;SDS011;74892;44.760;37.726;2024-02-23T12:43:56;7.35;;;2.70;;
79025;SDS011;74892;44.760;37.726;2024-02-23T12:44:58;3.92;;;2.15;;
79025;SDS011;74892;44.760;37.726;2024-02-23T12:46:00;2.55;;;1.50;;
79025;SDS011;74892;44.760;37.726;2024-02-23T12:47:04;4.20;;;2.17;;
79025;SDS011;74892;44.760;37.726;2024-02-23T12:48:06;4.22;;;2.33;;
79025;SDS011;74892;44.760;37.726;2024-02-23T12:49:08;3.67;;;1.85;;
79025;SDS011;74892;44.760;37.726;2024-02-23T12:50:10;4.55;;;1.98;;
79025;SDS011;74892;44.760;37.726;2024-02-23T12:51:12;4.55;;;2.20;;
79025;SDS011;74892;44.760;37.726;2024-02-23T12:52:13;3.72;;;1.90;;
79025;SDS011;74892;44.760;37.726;2024-02-23T12:53:32;12.10;;;2.88;;
79025;SDS011;74892;44.760;37.726;2024-02-23T12:54:34;5.10;;;2.65;;
79025;SDS011;74892;44.760;37.726;2024-02-23T12:55:36;6.50;;;2.60;;
79025;SDS011;74892;44.760;37.726;2024-02-23T12:56:37;4.40;;;2.42;;
79025;SDS011;74892;44.760;37.726;2024-02-23T12:57:43;5.22;;;2.20;;
79025;SDS011;74892;44.760;37.726;2024-02-23T12:58:45;3.85;;;1.92;;
79025;SDS011;74892;44.760;37.726;2024-02-23T12:59:47;4.65;;;2.38;;
79025;SDS011;74892;44.760;37.726;2024-02-23T13:00:48;6.22;;;2.42;;
79025;SDS011;74892;44.760;37.726;2024-02-23T13:01:50;6.88;;;2.75;;
79025;SDS011;74892;44.760;37.726;2024-02-23T13:02:52;6.78;;;2.97;;
79025;SDS011;74892;44.760;37.726;2024-02-23T13:03:53;5.72;;;2.95;;
79025;SDS011;74892;44.760;37.726;2024-02-23T13:04:55;4.93;;;2.80;;
79025;SDS011;74892;44.760;37.726;2024-02-23T13:05:57;5.43;;;3.60;;
79025;SDS011;74892;44.760;37.726;2024-02-23T13:06:59;5.20;;;3.20;;
79025;SDS011;74892;44.760;37.726;2024-02-23T13:08:01;6.25;;;2.83;;
79025;SDS011;74892;44.760;37.726;2024-02-23T13:09:02;5.22;;;2.97;;
79025;SDS011;74892;44.760;37.726;2024-02-23T13:10:05;7.03;;;3.17;;
79025;SDS011;74892;44.760;37.726;2024-02-23T13:11:07;6.82;;;3.45;;
79025;SDS011;74892;44.760;37.726;2024-02-23T13:12:08;4.88;;;2.83;;
79025;SDS011;74892;44.760;37.726;2024-02-23T13:13:10;5.57;;;3.10;;
79025;SDS011;74892;44.760;37.726;2024-02-23T13:14:16;8.48;;;3.30;;
79025;SDS011;74892;44.760;37.726;2024-02-23T13:15:18;6.40;;;3.25;;
79025;SDS011;74892;44.760;37.726;2024-02-23T13:16:20;5.50;;;3.22;;
79025;SDS011;74892;44.760;37.726;2024-02-23T13:17:21;7.13;;;3.42;;
79025;SDS011;74892;44.760;37.726;2024-02-23T13:18:23;8.88;;;3.60;;
79025;SDS011;74892;44.760;37.726;2024-02-23T13:19:25;7.60;;;4.05;;
79025;SDS011;74892;44.760;37.726;2024-02-23T13:20:27;6.63;;;3.97;;
79025;SDS011;74892;44.760;37.726;2024-02-23T13:21:28;7.53;;;3.60;;
79025;SDS011;74892;44.760;37.726;2024-02-23T13:22:30;7.65;;;4.10;;
79025;SDS011;74892;44.760;37.726;2024-02-23T13:23:32;5.63;;;2.92;;
79025;SDS011;74892;44.760;37.726;2024-02-23T13:24:33;6.75;;;3.85;;
79025;SDS011;74892;44.760;37.726;2024-02-23T13:25:35;6.25;;;3.58;;
79025;SDS011;74892;44.760;37.726;2024-02-23T13:26:37;6.47;;;3.60;;
79025;SDS011;74892;44.760;37.726;2024-02-23T13:27:39;8.30;;;4.40;;
79025;SDS011;74892;44.760;37.726;2024-02-23T13:28:43;5.05;;;3.05;;
79025;SDS011;74892;44.760;37.726;2024-02-23T13:29:45;6.00;;;3.72;;
79025;SDS011;74892;44.760;37.726;2024-02-23T13:30:47;7.75;;;4.13;;
79025;SDS011;74892;44.760;37.726;2024-02-23T13:31:48;8.55;;;4.05;;
79025;SDS011;74892;44.760;37.726;2024-02-23T13:32:50;7.82;;;4.35;;
79025;SDS011;74892;44.760;37.726;2024-02-23T13:33:53;6.28;;;3.90;;
79025;SDS011;74892;44.760;37.726;2024-02-23T13:34:55;7.20;;;3.75;;
79025;SDS011;74892;44.760;37.726;2024-02-23T13:35:56;6.35;;;3.92;;
79025;SDS011;74892;44.760;37.726;2024-02-23T13:36:58;6.05;;;3.70;;
79025;SDS011;74892;44.760;37.726;2024-02-23T13:37:59;8.00;;;3.80;;
79025;SDS011;74892;44.760;37.726;2024-02-23T13:39:04;6.88;;;3.15;;
79025;SDS011;74892;44.760;37.726;2024-02-23T13:40:06;6.10;;;4.28;;
79025;SDS011;74892;44.760;37.726;2024-02-23T13:41:09;6.63;;;4.03;;
79025;SDS011;74892;44.760;37.726;2024-02-23T13:42:12;7.53;;;3.92;;
79025;SDS011;74892;44.760;37.726;2024-02-23T13:43:14;5.50;;;3.30;;
79025;SDS011;74892;44.760;37.726;2024-02-23T13:44:16;7.55;;;3.45;;
79025;SDS011;74892;44.760;37.726;2024-02-23T13:45:19;7.75;;;3.83;;
79025;SDS011;74892;44.760;37.726;2024-02-23T13:46:21;8.23;;;3.65;;
79025;SDS011;74892;44.760;37.726;2024-02-23T13:47:22;9.30;;;3.80;;
79025;SDS011;74892;44.760;37.726;2024-02-23T13:48:24;9.50;;;4.35;;
79025;SDS011;74892;44.760;37.726;2024-02-23T13:49:25;6.80;;;4.35;;
79025;SDS011;74892;44.760;37.726;2024-02-23T13:50:27;11.35;;;4.38;;
79025;SDS011;74892;44.760;37.726;2024-02-23T13:51:29;8.50;;;5.07;;
79025;SDS011;74892;44.760;37.726;2024-02-23T13:52:32;7.40;;;4.68;;
79025;SDS011;74892;44.760;37.726;2024-02-23T13:53:34;8.68;;;3.60;;
79025;SDS011;74892;44.760;37.726;2024-02-23T13:54:38;6.53;;;3.92;;
79025;SDS011;74892;44.760;37.726;2024-02-23T13:55:40;6.32;;;4.03;;
79025;SDS011;74892;44.760;37.726;2024-02-23T13:56:44;9.02;;;4.10;;
79025;SDS011;74892;44.760;37.726;2024-02-23T13:57:47;8.15;;;4.25;;
79025;SDS011;74892;44.760;37.726;2024-02-23T13:58:49;8.15;;;4.25;;
79025;SDS011;74892;44.760;37.726;2024-02-23T13:59:51;7.25;;;3.78;;
79025;SDS011;74892;44.760;37.726;2024-02-23T14:00:53;6.88;;;4.30;;
79025;SDS011;74892;44.760;37.726;2024-02-23T14:01:54;7.25;;;4.03;;
79025;SDS011;74892;44.760;37.726;2024-02-23T14:02:56;7.38;;;4.30;;
79025;SDS011;74892;44.760;37.726;2024-02-23T14:03:58;8.60;;;4.85;;
79025;SDS011;74892;44.760;37.726;2024-02-23T14:05:00;8.32;;;4.80;;
79025;SDS011;74892;44.760;37.726;2024-02-23T14:06:04;7.55;;;4.35;;
79025;SDS011;74892;44.760;37.726;2024-02-23T14:07:06;7.35;;;4.25;;
79025;SDS011;74892;44.760;37.726;2024-02-23T15:36:56;8.85;;;4.00;;
79025;SDS011;74892;44.760;37.726;2024-02-23T15:38:06;9.10;;;4.00;;
79025;SDS011;74892;44.760;37.726;2024-02-23T15:39:14;11.27;;;4.85;;
79025;SDS011;74892;44.760;37.726;2024-02-23T15:40:19;11.13;;;5.53;;
79025;SDS011;74892;44.760;37.726;2024-02-23T15:41:21;11.40;;;4.95;;
79025;SDS011;74892;44.760;37.726;2024-02-23T15:42:22;10.02;;;5.50;;
79025;SDS011;74892;44.760;37.726;2024-02-23T15:43:34;12.55;;;5.63;;
79025;SDS011;74892;44.760;37.726;2024-02-23T15:44:36;9.98;;;5.68;;
79025;SDS011;74892;44.760;37.726;2024-02-23T15:45:44;11.93;;;5.97;;
79025;SDS011;74892;44.760;37.726;2024-02-23T15:46:49;9.88;;;5.50;;
79025;SDS011;74892;44.760;37.726;2024-02-23T15:47:53;12.00;;;6.07;;
79025;SDS011;74892;44.760;37.726;2024-02-23T15:49:13;10.70;;;5.65;;
79025;SDS011;74892;44.760;37.726;2024-02-23T15:54:06;14.18;;;6.35;;
79025;SDS011;74892;44.760;37.726;2024-02-23T15:55:07;11.15;;;6.72;;
79025;SDS011;74892;44.760;37.726;2024-02-23T15:56:12;11.43;;;6.25;;
79025;SDS011;74892;44.760;37.726;2024-02-23T15:57:14;12.10;;;6.82;;
79025;SDS011;74892;44.760;37.726;2024-02-23T15:58:16;16.55;;;6.10;;
79025;SDS011;74892;44.760;37.726;2024-02-23T15:59:55;11.43;;;5.88;;
79025;SDS011;74892;44.760;37.726;2024-02-23T16:00:56;13.95;;;6.15;;
79025;SDS011;74892;44.760;37.726;2024-02-23T16:03:24;11.52;;;5.32;;
79025;SDS011;74892;44.760;37.726;2024-02-23T16:04:26;10.70;;;6.05;;
79025;SDS011;74892;44.760;37.726;2024-02-23T16:05:28;14.68;;;6.43;;
79025;SDS011;74892;44.760;37.726;2024-02-23T16:06:29;14.23;;;5.50;;
79025;SDS011;74892;44.760;37.726;2024-02-23T16:07:35;13.18;;;6.18;;
79025;SDS011;74892;44.760;37.726;2024-02-23T16:08:40;10.38;;;6.10;;
79025;SDS011;74892;44.760;37.726;2024-02-23T16:09:49;11.95;;;5.80;;